Time;durP1;ratioP1;P1;durP2;ratioP2;P2;SDS_P1;SDS_P2;PMS_P1;PMS_P2;Temp;Humidity;BMP_temperature;BMP_pressure;BME280_temperature;BME280_humidity;BME280_pressure;Samples;Min_cycle;Max_cycle;Signal;HPM_P1;HPM_P2
2022/05/21 04:02:36;;;;;;;1999.90;999.90;;;;;;;;;;5130507;23;20586;-68
2022/05/21 04:05:23;;;;;;;1999.90;999.90;;;;;;;;;;4954859;29;20207;-67
2022/05/21 04:08:08;;;;;;;1999.90;999.90;;;;;;;;;;4952191;29;20348;-68
2022/05/21 04:10:53;;;;;;;1999.90;999.90;;;;;;;;;;4954845;29;20240;-68
2022/05/21 04:13:38;;;;;;;1999.90;999.90;;;;;;;;;;4954872;28;20209;-67
2022/05/21 04:16:23;;;;;;;1999.90;999.90;;;;;;;;;;4954691;29;20317;-67
2022/05/21 04:19:10;;;;;;;1999.90;999.90;;;;;;;;;;4954605;29;20691;-68
2022/05/21 04:21:55;;;;;;;1999.90;999.90;;;;;;;;;;4954750;29;20231;-68
2022/05/21 04:24:40;;;;;;;1999.90;999.90;;;;;;;;;;4954745;29;20211;-68
2022/05/21 04:27:26;;;;;;;1999.90;999.90;;;;;;;;;;4954413;29;20367;-68
2022/05/21 04:30:14;;;;;;;1999.90;999.90;;;;;;;;;;4954310;29;20781;-68
2022/05/21 04:32:59;;;;;;;1999.90;999.90;;;;;;;;;;4954616;29;20201;-68
2022/05/21 04:38:50;;;;;;;1999.90;999.90;;;;;;;;;;4938699;29;20421;-69
2022/05/21 04:41:35;;;;;;;1999.90;999.90;;;;;;;;;;4916284;29;20256;-68
2022/05/21 04:44:20;;;;;;;1999.90;999.90;;;;;;;;;;4916185;29;20266;-68
2022/05/21 04:47:05;;;;;;;1999.90;999.90;;;;;;;;;;4932514;29;20714;-67
2022/05/21 04:49:50;;;;;;;1999.90;999.90;;;;;;;;;;4948807;29;20224;-68
2022/05/21 04:52:36;;;;;;;1999.90;999.90;;;;;;;;;;4954198;29;20224;-67
2022/05/21 04:55:21;;;;;;;1999.90;999.90;;;;;;;;;;4954291;29;20603;-67
2022/05/21 04:58:06;;;;;;;1999.90;999.90;;;;;;;;;;4953876;29;20232;-69
2022/05/21 05:00:51;;;;;;;1999.90;999.90;;;;;;;;;;4942909;29;20720;-68
2022/05/21 05:03:36;;;;;;;1999.90;999.90;;;;;;;;;;4940522;29;20257;-68
2022/05/21 05:06:21;;;;;;;1999.90;999.90;;;;;;;;;;4954115;29;20212;-68
2022/05/21 05:09:08;;;;;;;1999.90;999.90;;;;;;;;;;4952703;29;20228;-68
2022/05/21 05:11:54;;;;;;;1999.90;999.90;;;;;;;;;;4930457;29;20349;-68
2022/05/21 05:14:39;;;;;;;1999.90;999.90;;;;;;;;;;4933385;29;20670;-68
2022/05/21 05:17:24;;;;;;;1999.90;999.90;;;;;;;;;;4931874;29;20760;-67
2022/05/21 05:20:09;;;;;;;1999.90;999.90;;;;;;;;;;4930988;29;20487;-67
2022/05/21 05:22:55;;;;;;;1999.90;999.90;;;;;;;;;;4933343;29;20423;-68
2022/05/21 05:25:41;;;;;;;1999.90;999.90;;;;;;;;;;4933083;29;20334;-69
2022/05/21 05:28:26;;;;;;;1999.90;999.90;;;;;;;;;;4944794;29;20658;-68
2022/05/21 05:31:11;;;;;;;1999.90;999.90;;;;;;;;;;4938365;29;20250;-66
2022/05/21 05:33:58;;;;;;;1999.90;999.90;;;;;;;;;;4935247;29;20224;-68
2022/05/21 05:36:43;;;;;;;1999.90;999.90;;;;;;;;;;4943585;29;20688;-68
2022/05/21 05:39:29;;;;;;;1999.90;999.90;;;;;;;;;;4940677;29;20222;-68
2022/05/21 05:42:17;;;;;;;1999.90;999.90;;;;;;;;;;4938657;29;20383;-69
2022/05/21 05:45:02;;;;;;;1999.90;999.90;;;;;;;;;;4946014;29;20209;-68
2022/05/21 05:47:48;;;;;;;1999.90;999.90;;;;;;;;;;4921781;29;20209;-72
2022/05/21 05:50:33;;;;;;;1999.90;999.90;;;;;;;;;;4937056;29;20445;-70
2022/05/21 05:53:18;;;;;;;1999.90;999.90;;;;;;;;;;4947269;29;20584;-69
2022/05/21 05:56:03;;;;;;;1999.90;999.90;;;;;;;;;;4936275;29;20220;-69
2022/05/21 06:02:57;;;;;;;1999.90;999.90;;;;;;;;;;4936888;29;20770;-70
2022/05/21 06:04:58;;;;;;;1999.90;999.90;;;;;;;;;;4939669;29;20691;-68
2022/05/21 06:07:44;;;;;;;1999.90;999.90;;;;;;;;;;4937833;29;20221;-68
2022/05/21 06:10:30;;;;;;;1999.90;999.90;;;;;;;;;;4936201;29;20313;-68
2022/05/21 06:13:16;;;;;;;1999.90;999.90;;;;;;;;;;4942192;28;20208;-68
2022/05/21 06:16:02;;;;;;;1999.90;999.90;;;;;;;;;;4936208;29;20208;-67
2022/05/21 06:18:47;;;;;;;1999.90;999.90;;;;;;;;;;4940044;29;20631;-67
2022/05/21 06:21:32;;;;;;;1999.90;999.90;;;;;;;;;;4940590;29;20272;-68
2022/05/21 06:24:18;;;;;;;1999.90;999.90;;;;;;;;;;4939513;29;20232;-67
2022/05/21 06:27:03;;;;;;;1999.90;999.90;;;;;;;;;;4939525;29;20208;-65
2022/05/21 06:29:48;;;;;;;1999.90;999.90;;;;;;;;;;4939106;29;20240;-68
2022/05/21 06:32:34;;;;;;;1999.90;999.90;;;;;;;;;;4939428;29;20418;-68
2022/05/21 06:35:19;;;;;;;1999.90;999.90;;;;;;;;;;4939695;29;20206;-68
2022/05/21 06:38:04;;;;;;;1999.90;999.90;;;;;;;;;;4936613;29;20291;-68
2022/05/21 06:40:49;;;;;;;1999.90;999.90;;;;;;;;;;4937119;29;20225;-67
2022/05/21 06:43:34;;;;;;;1999.90;999.90;;;;;;;;;;4937446;29;20575;-67
2022/05/21 06:46:18;;;;;;;1999.90;999.90;;;;;;;;;;4935333;29;20605;-67
2022/05/21 06:49:05;;;;;;;1999.90;999.90;;;;;;;;;;4941832;29;20289;-67
2022/05/21 06:51:53;;;;;;;1999.90;999.90;;;;;;;;;;4934706;29;20735;-68
2022/05/21 06:54:38;;;;;;;1999.90;999.90;;;;;;;;;;4936585;29;20219;-69
2022/05/21 06:57:28;;;;;;;1999.90;999.90;;;;;;;;;;4933640;29;20217;-67
2022/05/21 07:00:13;;;;;;;1999.90;999.90;;;;;;;;;;4935228;29;20217;-67
2022/05/21 07:02:58;;;;;;;1999.90;999.90;;;;;;;;;;4935372;29;20218;-68
2022/05/21 07:08:48;;;;;;;1999.90;999.90;;;;;;;;;;4932703;29;20211;-68
2022/05/21 07:11:33;;;;;;;1999.90;999.90;;;;;;;;;;4933029;29;20232;-68
2022/05/21 07:14:19;;;;;;;1999.90;999.90;;;;;;;;;;4929318;29;20222;-68
2022/05/21 07:17:04;;;;;;;1999.90;999.90;;;;;;;;;;4935719;29;20638;-66
2022/05/21 07:19:49;;;;;;;1999.90;999.90;;;;;;;;;;4932717;29;20411;-67
2022/05/21 07:22:35;;;;;;;1999.90;999.90;;;;;;;;;;4935202;29;20303;-67
2022/05/21 07:25:21;;;;;;;1999.90;999.90;;;;;;;;;;4939030;29;20203;-67
2022/05/21 07:28:07;;;;;;;1999.90;999.90;;;;;;;;;;4933506;29;20217;-68
2022/05/21 07:30:53;;;;;;;1999.90;999.90;;;;;;;;;;4933426;29;20252;-68
2022/05/21 07:33:38;;;;;;;1999.90;999.90;;;;;;;;;;4935107;29;20220;-69
2022/05/21 07:36:23;;;;;;;1999.90;999.90;;;;;;;;;;4931979;29;20260;-68
2022/05/21 07:39:09;;;;;;;1999.90;999.90;;;;;;;;;;4934772;29;20293;-68
2022/05/21 07:41:54;;;;;;;1999.90;999.90;;;;;;;;;;4934954;29;20221;-68
2022/05/21 07:44:39;;;;;;;1999.90;999.90;;;;;;;;;;4935030;29;20212;-69
2022/05/21 07:47:24;;;;;;;1999.90;999.90;;;;;;;;;;4946158;28;20439;-69
2022/05/21 07:50:09;;;;;;;1999.90;999.90;;;;;;;;;;4936046;29;20261;-69
2022/05/21 07:52:54;;;;;;;1999.90;999.90;;;;;;;;;;4923782;29;20217;-69
2022/05/21 07:55:43;;;;;;;1999.90;999.90;;;;;;;;;;4935031;29;20217;-70
2022/05/21 07:58:30;;;;;;;1999.90;999.90;;;;;;;;;;4924139;29;20269;-69
2022/05/21 08:01:16;;;;;;;1999.90;999.90;;;;;;;;;;4935707;29;20511;-72
2022/05/21 08:04:01;;;;;;;1999.90;999.90;;;;;;;;;;4928455;29;20229;-67
2022/05/21 08:06:46;;;;;;;1999.90;999.90;;;;;;;;;;4937170;29;20220;-69
2022/05/21 08:09:31;;;;;;;1999.90;999.90;;;;;;;;;;4939459;29;20217;-71
2022/05/21 08:12:18;;;;;;;1999.90;999.90;;;;;;;;;;4930035;29;20594;-69
2022/05/21 08:15:03;;;;;;;1999.90;999.90;;;;;;;;;;4933034;29;20220;-70
2022/05/21 08:17:48;;;;;;;1999.90;999.90;;;;;;;;;;4932578;29;20234;-72
2022/05/21 08:20:34;;;;;;;1999.90;999.90;;;;;;;;;;4931714;29;20217;-70
2022/05/21 08:29:35;;;;;;;1999.90;999.90;;;;;;;;;;4934324;29;20625;-69
2022/05/21 08:32:20;;;;;;;1999.90;999.90;;;;;;;;;;4937017;29;20249;-70
2022/05/21 08:35:05;;;;;;;1999.90;999.90;;;;;;;;;;4924588;29;20221;-69
2022/05/21 08:37:50;;;;;;;1999.90;999.90;;;;;;;;;;4934129;29;20210;-70
2022/05/21 08:40:39;;;;;;;1999.90;999.90;;;;;;;;;;4932633;29;20262;-69
2022/05/21 08:43:25;;;;;;;1999.90;999.90;;;;;;;;;;4932579;29;20471;-68
2022/05/21 08:46:17;;;;;;;1999.90;999.90;;;;;;;;;;4933822;29;20427;-68
2022/05/21 08:49:04;;;;;;;1999.90;999.90;;;;;;;;;;4933799;29;20202;-68
2022/05/21 08:51:50;;;;;;;1999.90;999.90;;;;;;;;;;4933304;29;20229;-69
2022/05/21 08:54:39;;;;;;;1999.90;999.90;;;;;;;;;;4933559;29;20284;-69
2022/05/21 08:57:27;;;;;;;1999.90;999.90;;;;;;;;;;4933780;29;20205;-69
2022/05/21 09:00:13;;;;;;;1999.90;999.90;;;;;;;;;;4932964;29;20205;-69
2022/05/21 09:03:00;;;;;;;1999.90;999.90;;;;;;;;;;4933742;29;20605;-68
2022/05/21 09:05:47;;;;;;;1999.90;999.90;;;;;;;;;;4930539;29;20684;-68
2022/05/21 09:08:37;;;;;;;1999.90;999.90;;;;;;;;;;4933239;29;20216;-68
2022/05/21 09:11:25;;;;;;;1999.90;999.90;;;;;;;;;;4931176;29;20441;-68
2022/05/21 09:14:13;;;;;;;1999.90;999.90;;;;;;;;;;4931252;29;20212;-68
2022/05/21 09:17:00;;;;;;;1999.90;999.90;;;;;;;;;;4933188;29;20337;-69
2022/05/21 09:19:48;;;;;;;1999.90;999.90;;;;;;;;;;4933257;29;20202;-68
2022/05/21 09:22:33;;;;;;;1999.90;999.90;;;;;;;;;;4933407;29;20612;-68
2022/05/21 09:25:19;;;;;;;1999.90;999.90;;;;;;;;;;4931985;29;20990;-69
2022/05/21 09:28:07;;;;;;;1999.90;999.90;;;;;;;;;;4933100;29;20279;-69
2022/05/21 09:30:56;;;;;;;1999.90;999.90;;;;;;;;;;4931294;29;20353;-68
2022/05/21 09:33:43;;;;;;;1999.90;999.90;;;;;;;;;;4933339;29;20205;-69
2022/05/21 09:36:35;;;;;;;1999.90;999.90;;;;;;;;;;4933322;29;20722;-67
2022/05/21 09:39:30;;;;;;;1999.90;999.90;;;;;;;;;;4930009;29;20769;-69
2022/05/21 09:45:26;;;;;;;1999.90;999.90;;;;;;;;;;4930348;29;20204;-68
2022/05/21 09:48:16;;;;;;;1999.90;999.90;;;;;;;;;;4923917;29;20346;-69
2022/05/21 09:51:02;;;;;;;1999.90;999.90;;;;;;;;;;4938277;29;20288;-68
2022/05/21 09:53:48;;;;;;;1999.90;999.90;;;;;;;;;;4938682;29;21239;-69
2022/05/21 09:56:34;;;;;;;1999.90;999.90;;;;;;;;;;4941971;29;20219;-69
2022/05/21 09:59:20;;;;;;;1999.90;999.90;;;;;;;;;;4934212;29;20238;-69
2022/05/21 10:02:15;;;;;;;1999.90;999.90;;;;;;;;;;4936438;29;20236;-69
2022/05/21 10:05:00;;;;;;;1999.90;999.90;;;;;;;;;;4938458;29;20291;-69
2022/05/21 10:10:59;;;;;;;1999.90;999.90;;;;;;;;;;4949285;28;20811;-69
2022/05/21 10:13:48;;;;;;;1999.90;999.90;;;;;;;;;;4935292;29;20217;-68
2022/05/21 10:16:35;;;;;;;1999.90;999.90;;;;;;;;;;4949524;29;20212;-68
2022/05/21 10:19:24;;;;;;;1999.90;999.90;;;;;;;;;;4940176;29;20731;-68
2022/05/21 10:22:15;;;;;;;1999.90;999.90;;;;;;;;;;4925719;29;20298;-67
2022/05/21 10:25:03;;;;;;;1999.90;999.90;;;;;;;;;;4924003;29;20217;-68
2022/05/21 10:28:05;;;;;;;1999.90;999.90;;;;;;;;;;4940437;29;20231;-71
2022/05/21 10:30:58;;;;;;;1999.90;999.90;;;;;;;;;;4920243;29;20454;-70
2022/05/21 10:33:52;;;;;;;1999.90;999.90;;;;;;;;;;4937650;29;20250;-70
2022/05/21 10:36:43;;;;;;;1999.90;999.90;;;;;;;;;;4932683;29;20221;-68
2022/05/21 10:39:42;;;;;;;1999.90;999.90;;;;;;;;;;4944146;29;20230;-70
2022/05/21 10:42:37;;;;;;;1999.90;999.90;;;;;;;;;;4930172;29;20228;-68
2022/05/21 10:45:27;;;;;;;1999.90;999.90;;;;;;;;;;4941104;29;20798;-68
2022/05/21 10:48:24;;;;;;;1999.90;999.90;;;;;;;;;;4925422;29;20260;-69
2022/05/21 10:51:10;;;;;;;1999.90;999.90;;;;;;;;;;4933233;29;20233;-71
2022/05/21 10:54:01;;;;;;;1999.90;999.90;;;;;;;;;;4936225;29;20223;-69
2022/05/21 10:56:49;;;;;;;1999.90;999.90;;;;;;;;;;4934974;29;20212;-69
2022/05/21 10:59:49;;;;;;;1999.90;999.90;;;;;;;;;;4929547;29;20266;-70
2022/05/21 11:02:53;;;;;;;1999.90;999.90;;;;;;;;;;4933085;29;20307;-68
2022/05/21 11:06:06;;;;;;;1999.90;999.90;;;;;;;;;;4933007;29;20261;-69
2022/05/21 11:08:55;;;;;;;1999.90;999.90;;;;;;;;;;4901911;29;20221;-69
2022/05/21 11:11:45;;;;;;;1999.90;999.90;;;;;;;;;;4934015;29;20221;-69
2022/05/21 11:14:34;;;;;;;1999.90;999.90;;;;;;;;;;4935007;29;20220;-70
2022/05/21 11:17:26;;;;;;;1999.90;999.90;;;;;;;;;;4935223;29;20325;-68
2022/05/21 11:20:16;;;;;;;1999.90;999.90;;;;;;;;;;4933526;29;20217;-70
2022/05/21 11:23:06;;;;;;;1999.90;999.90;;;;;;;;;;4929494;29;20798;-69
2022/05/21 11:25:55;;;;;;;1999.90;999.90;;;;;;;;;;4933042;29;20442;-69
2022/05/21 11:28:43;;;;;;;1999.90;999.90;;;;;;;;;;4929339;29;20239;-68
2022/05/21 11:37:43;;;;;;;1999.90;999.90;;;;;;;;;;4941845;29;20204;-69
2022/05/21 11:40:47;;;;;;;1999.90;999.90;;;;;;;;;;4955185;29;20279;-68
2022/05/21 11:43:52;;;;;;;1999.90;999.90;;;;;;;;;;4955182;29;20216;-69
2022/05/21 11:46:39;;;;;;;1999.90;999.90;;;;;;;;;;4954856;29;20216;-68
2022/05/21 11:49:40;;;;;;;1999.90;999.90;;;;;;;;;;4954692;29;20585;-69
2022/05/21 11:52:43;;;;;;;1999.90;999.90;;;;;;;;;;4954752;29;20240;-68
2022/05/21 11:55:30;;;;;;;1999.90;999.90;;;;;;;;;;4951822;29;20217;-68
2022/05/21 11:58:16;;;;;;;1999.90;999.90;;;;;;;;;;4954400;29;20776;-68
2022/05/21 12:01:00;;;;;;;1999.90;999.90;;;;;;;;;;4954619;29;20227;-68
2022/05/21 12:03:53;;;;;;;1999.90;999.90;;;;;;;;;;4954674;29;20580;-68
2022/05/21 12:06:39;;;;;;;1999.90;999.90;;;;;;;;;;4954473;29;20209;-68
2022/05/21 12:09:26;;;;;;;1999.90;999.90;;;;;;;;;;4953140;29;20804;-68
2022/05/21 12:12:17;;;;;;;1999.90;999.90;;;;;;;;;;4954232;29;20220;-68
2022/05/21 12:15:13;;;;;;;1999.90;999.90;;;;;;;;;;4954530;29;20212;-69
2022/05/21 12:18:00;;;;;;;1999.90;999.90;;;;;;;;;;4954172;29;20702;-69
2022/05/21 12:20:47;;;;;;;1999.90;999.90;;;;;;;;;;4954291;29;20434;-69
2022/05/21 12:23:56;;;;;;;1999.90;999.90;;;;;;;;;;4954377;29;20209;-67
2022/05/21 12:26:44;;;;;;;1999.90;999.90;;;;;;;;;;4945101;29;20292;-68
2022/05/21 12:29:32;;;;;;;1999.90;999.90;;;;;;;;;;4953972;29;20208;-69
2022/05/21 12:32:23;;;;;;;1999.90;999.90;;;;;;;;;;4953861;29;20260;-68
2022/05/21 12:35:19;;;;;;;1999.90;999.90;;;;;;;;;;4953235;28;20771;-68
2022/05/21 12:38:07;;;;;;;1999.90;999.90;;;;;;;;;;4953969;29;20213;-68
2022/05/21 12:40:59;;;;;;;1999.90;999.90;;;;;;;;;;4954129;29;20312;-69
2022/05/21 12:43:45;;;;;;;1999.90;999.90;;;;;;;;;;4954032;29;20570;-68
2022/05/21 12:46:33;;;;;;;1999.90;999.90;;;;;;;;;;4953904;29;20212;-68
2022/05/21 12:49:18;;;;;;;1999.90;999.90;;;;;;;;;;4954030;29;20232;-68
2022/05/21 12:52:03;;;;;;;1999.90;999.90;;;;;;;;;;4953064;29;20229;-68
2022/05/21 12:54:49;;;;;;;1999.90;999.90;;;;;;;;;;4954290;29;20200;-68
2022/05/21 12:57:33;;;;;;;1999.90;999.90;;;;;;;;;;4954248;29;20263;-67
2022/05/21 13:00:19;;;;;;;1999.90;999.90;;;;;;;;;;4954048;29;20204;-68
2022/05/21 13:03:08;;;;;;;1999.90;999.90;;;;;;;;;;4953844;29;20201;-68
2022/05/21 13:05:55;;;;;;;1999.90;999.90;;;;;;;;;;4953885;29;20209;-68
2022/05/21 13:08:41;;;;;;;1999.90;999.90;;;;;;;;;;4953847;29;20303;-67
2022/05/21 13:11:31;;;;;;;1999.90;999.90;;;;;;;;;;4953903;29;20236;-69
2022/05/21 13:14:23;;;;;;;1999.90;999.90;;;;;;;;;;4954014;29;20252;-68
2022/05/21 13:17:14;;;;;;;1999.90;999.90;;;;;;;;;;4953690;29;20690;-68
2022/05/21 13:20:10;;;;;;;1999.90;999.90;;;;;;;;;;4952881;29;20469;-68
2022/05/21 13:23:01;;;;;;;1999.90;999.90;;;;;;;;;;4953941;29;20201;-68
2022/05/21 13:25:50;;;;;;;1999.90;999.90;;;;;;;;;;4953887;29;20209;-69
2022/05/21 13:28:35;;;;;;;1999.90;999.90;;;;;;;;;;4936008;29;20221;-68
2022/05/21 13:31:21;;;;;;;1999.90;999.90;;;;;;;;;;4935917;29;20225;-68
2022/05/21 13:34:06;;;;;;;1999.90;999.90;;;;;;;;;;4931171;29;20449;-68
2022/05/21 13:36:54;;;;;;;1999.90;999.90;;;;;;;;;;4931123;29;20282;-66
2022/05/21 13:39:39;;;;;;;1999.90;999.90;;;;;;;;;;4924343;29;20212;-68
2022/05/21 13:42:26;;;;;;;1999.90;999.90;;;;;;;;;;4938196;29;20244;-69
2022/05/21 13:45:13;;;;;;;1999.90;999.90;;;;;;;;;;4937498;29;20297;-68
2022/05/21 13:47:59;;;;;;;1999.90;999.90;;;;;;;;;;4932233;29;20330;-68
2022/05/21 13:50:45;;;;;;;1999.90;999.90;;;;;;;;;;4936691;29;20741;-69
2022/05/21 13:53:32;;;;;;;1999.90;999.90;;;;;;;;;;4946289;29;20232;-68
2022/05/21 13:56:27;;;;;;;1999.90;999.90;;;;;;;;;;4948007;29;20576;-68
2022/05/21 13:59:15;;;;;;;1999.90;999.90;;;;;;;;;;4938001;29;20581;-68
2022/05/21 14:02:14;;;;;;;1999.90;999.90;;;;;;;;;;4936655;29;20474;-68
2022/05/21 14:04:59;;;;;;;1999.90;999.90;;;;;;;;;;4938159;29;20311;-69
2022/05/21 14:07:49;;;;;;;1999.90;999.90;;;;;;;;;;4937998;29;20675;-68
2022/05/21 14:10:41;;;;;;;1999.90;999.90;;;;;;;;;;4938102;29;20622;-68
2022/05/21 14:13:28;;;;;;;1999.90;999.90;;;;;;;;;;4937679;29;20240;-70
2022/05/21 14:16:25;;;;;;;1999.90;999.90;;;;;;;;;;4936631;29;20819;-68
2022/05/21 14:19:11;;;;;;;1999.90;999.90;;;;;;;;;;4937391;29;20234;-70
2022/05/21 14:22:00;;;;;;;1999.90;999.90;;;;;;;;;;4937833;29;20233;-68
2022/05/21 14:24:47;;;;;;;1999.90;999.90;;;;;;;;;;4937864;29;20205;-69
2022/05/21 14:27:33;;;;;;;1999.90;999.90;;;;;;;;;;4937741;29;20209;-68
2022/05/21 14:30:28;;;;;;;1999.90;999.90;;;;;;;;;;4937775;29;20601;-67
2022/05/21 14:33:17;;;;;;;1999.90;999.90;;;;;;;;;;4937387;29;20366;-68
2022/05/21 14:36:18;;;;;;;1999.90;999.90;;;;;;;;;;4937273;29;20210;-68
2022/05/21 14:39:03;;;;;;;1999.90;999.90;;;;;;;;;;4937300;29;20201;-66
2022/05/21 14:41:49;;;;;;;1999.90;999.90;;;;;;;;;;4937441;29;20250;-66
2022/05/21 14:44:37;;;;;;;1999.90;999.90;;;;;;;;;;4936015;29;20419;-68
2022/05/21 14:53:31;;;;;;;1999.90;999.90;;;;;;;;;;4937027;29;20225;-68
2022/05/21 14:56:26;;;;;;;1999.90;999.90;;;;;;;;;;4936890;29;20418;-69
2022/05/21 14:59:11;;;;;;;1999.90;999.90;;;;;;;;;;4936569;29;20217;-68
2022/05/21 15:01:58;;;;;;;1999.90;999.90;;;;;;;;;;4936979;29;20336;-68
2022/05/21 15:04:43;;;;;;;1999.90;999.90;;;;;;;;;;4937157;29;20298;-68
2022/05/21 15:07:28;;;;;;;1999.90;999.90;;;;;;;;;;4936964;29;20224;-68
2022/05/21 15:10:14;;;;;;;1999.90;999.90;;;;;;;;;;4936792;29;20285;-68
2022/05/21 15:13:00;;;;;;;1999.90;999.90;;;;;;;;;;4936731;29;20555;-68
2022/05/21 15:15:44;;;;;;;1999.90;999.90;;;;;;;;;;4936899;29;20232;-68
2022/05/21 15:18:31;;;;;;;1999.90;999.90;;;;;;;;;;4936402;29;20700;-68
2022/05/21 15:21:18;;;;;;;1999.90;999.90;;;;;;;;;;4936801;29;20233;-67
2022/05/21 15:24:03;;;;;;;1999.90;999.90;;;;;;;;;;4936692;29;20197;-68
2022/05/21 15:26:48;;;;;;;1999.90;999.90;;;;;;;;;;4936689;29;20229;-70
2022/05/21 15:29:33;;;;;;;1999.90;999.90;;;;;;;;;;4936559;29;20228;-68
2022/05/21 15:32:18;;;;;;;1999.90;999.90;;;;;;;;;;4936164;29;20229;-68
2022/05/21 15:35:07;;;;;;;1999.90;999.90;;;;;;;;;;4936753;29;20205;-68
2022/05/21 15:37:52;;;;;;;1999.90;999.90;;;;;;;;;;4936201;29;20580;-68
2022/05/21 15:40:40;;;;;;;1999.90;999.90;;;;;;;;;;4934975;29;20495;-68
2022/05/21 15:43:26;;;;;;;1999.90;999.90;;;;;;;;;;4936120;29;20205;-68
2022/05/21 15:46:11;;;;;;;1999.90;999.90;;;;;;;;;;4936763;29;20201;-68
2022/05/21 15:48:56;;;;;;;1999.90;999.90;;;;;;;;;;4935990;29;20216;-68
2022/05/21 15:51:43;;;;;;;1999.90;999.90;;;;;;;;;;4936071;29;20316;-68
2022/05/21 15:54:28;;;;;;;1999.90;999.90;;;;;;;;;;4936249;29;20228;-68
2022/05/21 15:57:13;;;;;;;1999.90;999.90;;;;;;;;;;4936009;29;20212;-67
2022/05/21 15:59:58;;;;;;;1999.90;999.90;;;;;;;;;;4935836;29;20209;-68
2022/05/21 16:02:43;;;;;;;1999.90;999.90;;;;;;;;;;4935672;29;20316;-68
2022/05/21 16:05:29;;;;;;;1999.90;999.90;;;;;;;;;;4935801;29;20206;-68
2022/05/21 16:08:15;;;;;;;1999.90;999.90;;;;;;;;;;4935497;29;20314;-66
2022/05/21 16:11:01;;;;;;;1999.90;999.90;;;;;;;;;;4935546;29;20232;-67
2022/05/21 16:13:46;;;;;;;1999.90;999.90;;;;;;;;;;4935546;29;20241;-69
2022/05/21 16:16:33;;;;;;;1999.90;999.90;;;;;;;;;;4935601;29;20273;-70
2022/05/21 16:19:19;;;;;;;1999.90;999.90;;;;;;;;;;4935420;29;20421;-68
2022/05/21 16:22:06;;;;;;;1999.90;999.90;;;;;;;;;;4935626;29;20224;-68
2022/05/21 16:24:52;;;;;;;1999.90;999.90;;;;;;;;;;4935680;29;20228;-67
2022/05/21 16:27:37;;;;;;;1999.90;999.90;;;;;;;;;;4935154;29;20702;-69
2022/05/21 16:30:22;;;;;;;1999.90;999.90;;;;;;;;;;4935509;29;20229;-70
2022/05/21 16:33:07;;;;;;;1999.90;999.90;;;;;;;;;;4935314;29;20731;-68
2022/05/21 16:35:53;;;;;;;1999.90;999.90;;;;;;;;;;4935367;29;20211;-67
2022/05/21 16:38:38;;;;;;;1999.90;999.90;;;;;;;;;;4934923;29;20211;-67
2022/05/21 16:41:24;;;;;;;1999.90;999.90;;;;;;;;;;4935246;29;20291;-67
2022/05/21 16:44:09;;;;;;;1999.90;999.90;;;;;;;;;;4935360;29;20207;-68
2022/05/21 16:46:54;;;;;;;1999.90;999.90;;;;;;;;;;4935298;29;20274;-69
2022/05/21 16:49:40;;;;;;;1999.90;999.90;;;;;;;;;;4934690;29;20211;-68
2022/05/21 16:52:25;;;;;;;1999.90;999.90;;;;;;;;;;4935353;29;20307;-66
2022/05/21 16:55:10;;;;;;;1999.90;999.90;;;;;;;;;;4935624;29;20214;-68
2022/05/21 16:57:56;;;;;;;1999.90;999.90;;;;;;;;;;4934779;29;20204;-66
2022/05/21 17:00:41;;;;;;;1999.90;999.90;;;;;;;;;;4934867;29;20341;-68
2022/05/21 17:03:26;;;;;;;1999.90;999.90;;;;;;;;;;4935058;29;20334;-67
2022/05/21 17:06:11;;;;;;;1999.90;999.90;;;;;;;;;;4934979;29;20674;-69
2022/05/21 17:08:56;;;;;;;1999.90;999.90;;;;;;;;;;4934736;29;20210;-67
2022/05/21 17:11:42;;;;;;;1999.90;999.90;;;;;;;;;;4934613;29;20227;-68
2022/05/21 17:14:28;;;;;;;1999.90;999.90;;;;;;;;;;4934584;29;20829;-67
2022/05/21 17:17:14;;;;;;;1999.90;999.90;;;;;;;;;;4934932;29;20626;-68
2022/05/21 17:19:58;;;;;;;1999.90;999.90;;;;;;;;;;4933858;29;20208;-68
2022/05/21 17:22:44;;;;;;;1999.90;999.90;;;;;;;;;;4934703;29;20231;-68
2022/05/21 17:25:29;;;;;;;1999.90;999.90;;;;;;;;;;4934505;29;20216;-67
2022/05/21 17:31:18;;;;;;;1999.90;999.90;;;;;;;;;;4933386;29;20466;-68
2022/05/21 17:34:04;;;;;;;1999.90;999.90;;;;;;;;;;4934426;29;20734;-69
2022/05/21 17:36:49;;;;;;;1999.90;999.90;;;;;;;;;;4934756;29;20260;-70
2022/05/21 17:39:34;;;;;;;1999.90;999.90;;;;;;;;;;4934295;29;20708;-68
2022/05/21 17:42:19;;;;;;;1999.90;999.90;;;;;;;;;;4934619;29;20356;-69
2022/05/21 17:45:05;;;;;;;1999.90;999.90;;;;;;;;;;4933506;29;20958;-68
2022/05/21 17:47:52;;;;;;;1999.90;999.90;;;;;;;;;;4934790;29;20214;-68
2022/05/21 17:50:39;;;;;;;1999.90;999.90;;;;;;;;;;4934548;29;20221;-67
2022/05/21 17:53:25;;;;;;;1999.90;999.90;;;;;;;;;;4934428;29;20729;-68
2022/05/21 17:56:10;;;;;;;1999.90;999.90;;;;;;;;;;4934523;29;20211;-68
2022/05/21 17:58:55;;;;;;;1999.90;999.90;;;;;;;;;;4934234;29;20217;-68
2022/05/21 18:01:40;;;;;;;1999.90;999.90;;;;;;;;;;4934446;29;20252;-67
2022/05/21 18:04:26;;;;;;;1999.90;999.90;;;;;;;;;;4934141;29;20212;-69
2022/05/21 18:07:11;;;;;;;1999.90;999.90;;;;;;;;;;4934181;29;20206;-68
2022/05/21 18:09:56;;;;;;;1999.90;999.90;;;;;;;;;;4934132;29;20214;-68
2022/05/21 18:12:42;;;;;;;1999.90;999.90;;;;;;;;;;4933356;29;20427;-68
2022/05/21 18:21:37;;;;;;;1999.90;999.90;;;;;;;;;;4934252;29;20302;-69
2022/05/21 18:24:22;;;;;;;1999.90;999.90;;;;;;;;;;4934253;29;20205;-68
2022/05/21 18:27:07;;;;;;;1999.90;999.90;;;;;;;;;;4934254;29;20214;-68
2022/05/21 18:29:52;;;;;;;1999.90;999.90;;;;;;;;;;4934109;29;20841;-67
2022/05/21 18:32:37;;;;;;;1999.90;999.90;;;;;;;;;;4936277;29;20236;-69
2022/05/21 18:35:22;;;;;;;1999.90;999.90;;;;;;;;;;4937624;29;20215;-68
2022/05/21 18:38:08;;;;;;;1999.90;999.90;;;;;;;;;;4937357;29;20261;-69
2022/05/21 18:40:54;;;;;;;1999.90;999.90;;;;;;;;;;4937686;29;20225;-68
2022/05/21 18:43:39;;;;;;;1999.90;999.90;;;;;;;;;;4937592;29;20712;-68
2022/05/21 18:46:28;;;;;;;1999.90;999.90;;;;;;;;;;4937609;29;20278;-67
2022/05/21 18:49:13;;;;;;;1999.90;999.90;;;;;;;;;;4937147;29;20214;-66
2022/05/21 18:51:58;;;;;;;1999.90;999.90;;;;;;;;;;4937267;29;20285;-66
2022/05/21 18:54:45;;;;;;;1999.90;999.90;;;;;;;;;;4935718;29;20929;-66
2022/05/21 18:57:30;;;;;;;1999.90;999.90;;;;;;;;;;4937266;29;20210;-67
2022/05/21 19:00:15;;;;;;;1999.90;999.90;;;;;;;;;;4937241;29;20309;-68
2022/05/21 19:03:00;;;;;;;1999.90;999.90;;;;;;;;;;4937023;29;20200;-67
2022/05/21 19:05:45;;;;;;;1999.90;999.90;;;;;;;;;;4937177;29;20211;-69
2022/05/21 19:08:31;;;;;;;1999.90;999.90;;;;;;;;;;4935465;29;20422;-68
2022/05/21 19:11:17;;;;;;;1999.90;999.90;;;;;;;;;;4937006;29;20228;-69
2022/05/21 19:14:02;;;;;;;1999.90;999.90;;;;;;;;;;4936875;29;20229;-67
2022/05/21 19:16:47;;;;;;;1999.90;999.90;;;;;;;;;;4936978;29;20720;-67
2022/05/21 19:19:33;;;;;;;1999.90;999.90;;;;;;;;;;4936602;29;20216;-68
2022/05/21 19:22:17;;;;;;;1999.90;999.90;;;;;;;;;;4936698;29;20232;-68
2022/05/21 19:25:03;;;;;;;1999.90;999.90;;;;;;;;;;4936955;29;20206;-69
2022/05/21 19:27:49;;;;;;;1999.90;999.90;;;;;;;;;;4936660;29;20534;-68
2022/05/21 19:30:34;;;;;;;1999.90;999.90;;;;;;;;;;4936582;29;20233;-68
2022/05/21 19:33:20;;;;;;;1999.90;999.90;;;;;;;;;;4936480;29;20703;-68
2022/05/21 19:36:05;;;;;;;1999.90;999.90;;;;;;;;;;4935559;29;20506;-69
2022/05/21 19:38:50;;;;;;;1999.90;999.90;;;;;;;;;;4936278;29;20326;-67
2022/05/21 19:41:34;;;;;;;1999.90;999.90;;;;;;;;;;4936453;29;20728;-67
2022/05/21 19:44:20;;;;;;;1999.90;999.90;;;;;;;;;;4935890;29;20209;-67
2022/05/21 19:47:05;;;;;;;1999.90;999.90;;;;;;;;;;4931896;29;20703;-69
2022/05/21 19:49:50;;;;;;;1999.90;999.90;;;;;;;;;;4930473;29;20410;-67
2022/05/21 19:52:36;;;;;;;1999.90;999.90;;;;;;;;;;4937403;29;20301;-68
2022/05/21 19:55:21;;;;;;;1999.90;999.90;;;;;;;;;;4936861;29;20216;-66
2022/05/21 19:58:06;;;;;;;1999.90;999.90;;;;;;;;;;4935743;29;20321;-67
2022/05/21 20:00:52;;;;;;;1999.90;999.90;;;;;;;;;;4932842;29;20247;-67
2022/05/21 20:03:37;;;;;;;1999.90;999.90;;;;;;;;;;4934078;29;20209;-67
2022/05/21 20:06:22;;;;;;;1999.90;999.90;;;;;;;;;;4933253;29;20269;-66
2022/05/21 20:09:07;;;;;;;1999.90;999.90;;;;;;;;;;4934128;29;20210;-69
2022/05/21 20:11:52;;;;;;;1999.90;999.90;;;;;;;;;;4932444;29;20247;-67
2022/05/21 20:14:37;;;;;;;1999.90;999.90;;;;;;;;;;4932042;29;20620;-69
2022/05/21 20:17:23;;;;;;;1999.90;999.90;;;;;;;;;;4933377;29;20410;-67